createdAt,value
2022-10-12T00:00:36.877Z,20.56
2022-10-12T00:03:02.811Z,20.46
2022-10-12T00:05:29.489Z,20.52
2022-10-12T00:07:55.428Z,20.52
2022-10-12T00:10:21.493Z,20.56
2022-10-12T00:12:47.429Z,20.57
2022-10-12T00:15:14.080Z,20.50
2022-10-12T00:17:40.366Z,20.21
2022-10-12T00:20:08.670Z,20.38
2022-10-12T00:22:34.615Z,20.51
2022-10-12T00:25:01.308Z,20.52
2022-10-12T00:27:27.288Z,20.58
2022-10-12T00:29:53.198Z,20.60
2022-10-12T00:32:19.124Z,20.40
2022-10-12T00:34:45.862Z,20.31
2022-10-12T00:37:11.784Z,20.41
2022-10-12T00:39:37.684Z,20.53
2022-10-12T00:42:03.606Z,20.50
2022-10-12T00:44:29.579Z,20.28
2022-10-12T00:46:55.478Z,20.32
2022-10-12T00:49:22.270Z,20.34
2022-10-12T00:51:48.199Z,20.44
2022-10-12T00:54:14.107Z,20.43
2022-10-12T00:56:40.868Z,20.48
2022-10-12T00:59:06.768Z,20.45
2022-10-12T01:01:33.153Z,20.50
2022-10-12T01:03:59.897Z,20.46
2022-10-12T01:06:25.795Z,20.47
2022-10-12T01:08:52.584Z,20.43
2022-10-12T01:11:18.507Z,20.46
2022-10-12T01:13:44.459Z,20.50
2022-10-12T01:16:11.315Z,20.51
2022-10-12T01:18:37.261Z,20.47
2022-10-12T01:21:03.160Z,20.35
2022-10-12T01:23:30.011Z,20.19
2022-10-12T01:25:55.963Z,20.13
2022-10-12T01:28:21.959Z,20.15
2022-10-12T01:30:47.900Z,20.18
2022-10-12T01:33:14.698Z,20.24
2022-10-12T01:35:40.626Z,20.14
2022-10-12T01:38:07.385Z,20.17
2022-10-12T01:40:33.313Z,20.16
2022-10-12T01:42:59.242Z,20.23
2022-10-12T01:45:25.197Z,20.27
2022-10-12T01:47:51.732Z,20.24
2022-10-12T01:50:17.656Z,20.22
2022-10-12T01:52:43.550Z,20.24
2022-10-12T01:55:10.404Z,20.20
2022-10-12T01:57:36.529Z,20.23
2022-10-12T02:00:02.832Z,20.23
2022-10-12T02:02:28.757Z,20.13
2022-10-12T02:04:54.994Z,20.19
2022-10-12T02:07:22.366Z,20.21
2022-10-12T02:09:48.587Z,20.15
2022-10-12T02:12:14.776Z,20.19
2022-10-12T02:14:41.501Z,20.20
2022-10-12T02:17:07.682Z,20.21
2022-10-12T02:19:33.607Z,20.18
2022-10-12T02:22:00.859Z,20.19
2022-10-12T02:27:08.555Z,20.02
2022-10-12T04:26:20.992Z,19.38
2022-10-12T04:31:31.936Z,19.20
2022-10-12T04:33:57.853Z,19.19
2022-10-12T04:36:23.836Z,19.14
2022-10-12T04:38:49.733Z,19.25
2022-10-12T04:41:15.660Z,19.23
2022-10-12T04:43:41.588Z,19.14
2022-10-12T04:46:07.511Z,19.10
2022-10-12T04:48:33.435Z,19.12
2022-10-12T04:50:59.334Z,19.12
2022-10-12T04:53:25.291Z,19.05
2022-10-12T04:55:51.911Z,18.95
2022-10-12T04:58:18.164Z,18.97
2022-10-12T05:00:44.114Z,18.91
2022-10-12T05:03:10.006Z,18.88
2022-10-12T05:05:35.970Z,18.83
2022-10-12T05:08:02.673Z,18.79
2022-10-12T05:10:28.601Z,18.89
2022-10-12T05:12:55.463Z,18.95
2022-10-12T05:15:21.388Z,18.95
2022-10-12T05:17:47.315Z,18.91
2022-10-12T05:20:14.024Z,18.95
2022-10-12T05:22:40.616Z,18.88
2022-10-12T05:25:06.552Z,18.92
2022-10-12T05:27:33.471Z,18.90
2022-10-12T05:29:59.381Z,18.97
2022-10-12T05:32:25.300Z,18.99
2022-10-12T05:34:51.228Z,18.98
2022-10-12T05:37:17.183Z,18.89
2022-10-12T05:39:43.097Z,18.84
2022-10-12T05:42:09.012Z,18.83
2022-10-12T05:44:35.821Z,18.84
2022-10-12T05:47:01.805Z,18.88
2022-10-12T05:49:28.529Z,18.97
2022-10-12T05:51:54.461Z,19.07
2022-10-12T05:54:21.090Z,19.01
2022-10-12T05:56:46.993Z,18.99
2022-10-12T05:59:13.581Z,19.04
2022-10-12T06:01:40.245Z,19.14
2022-10-12T06:04:06.268Z,19.24
2022-10-12T06:06:32.197Z,19.33
2022-10-12T06:08:58.109Z,19.42
2022-10-12T06:11:24.134Z,19.51
2022-10-12T06:13:50.067Z,19.57
2022-10-12T06:16:15.956Z,19.62
2022-10-12T06:18:41.902Z,19.68
2022-10-12T06:21:32.647Z,19.67
2022-10-12T06:23:56.066Z,19.74
2022-10-12T06:26:22.782Z,19.87
2022-10-12T06:28:48.795Z,19.92
2022-10-12T06:31:14.752Z,19.99
2022-10-12T06:33:40.668Z,20.03
2022-10-12T06:36:07.403Z,20.05
2022-10-12T06:38:33.325Z,20.12
2022-10-12T06:40:59.307Z,20.16
2022-10-12T06:43:25.850Z,20.16
2022-10-12T06:45:51.835Z,20.10
2022-10-12T06:48:18.883Z,20.09
2022-10-12T06:50:45.060Z,20.16
2022-10-12T06:53:12.330Z,20.19
2022-10-12T06:55:38.289Z,20.26
2022-10-12T06:58:05.125Z,20.27
2022-10-12T07:00:31.310Z,20.49
2022-10-12T07:02:57.540Z,20.62
2022-10-12T07:05:23.752Z,20.80
2022-10-12T07:07:51.991Z,20.83
2022-10-12T07:10:18.237Z,20.84
2022-10-12T07:12:44.426Z,20.95
2022-10-12T07:15:10.763Z,20.72
2022-10-12T07:17:37.086Z,20.79
2022-10-12T09:15:05.969Z,22.44
2022-10-12T09:17:32.564Z,22.50
2022-10-12T09:19:58.513Z,22.76
2022-10-12T09:22:24.446Z,22.77
2022-10-12T09:24:51.314Z,22.72
2022-10-12T09:27:17.289Z,22.53
2022-10-12T09:29:43.194Z,22.38
2022-10-12T09:32:10.029Z,22.58
2022-10-12T09:34:35.970Z,22.83
2022-10-12T09:37:01.874Z,22.96
2022-10-12T09:39:29.250Z,22.61
2022-10-12T09:41:55.991Z,21.96
2022-10-12T09:44:21.916Z,22.41
2022-10-12T09:46:47.814Z,22.54
2022-10-12T09:49:14.215Z,22.76
2022-10-12T09:51:40.141Z,23.29
2022-10-12T09:54:06.064Z,23.68
2022-10-12T09:56:32.650Z,24.10
2022-10-12T09:58:59.426Z,24.30
2022-10-12T10:01:25.369Z,24.44
2022-10-12T10:03:52.046Z,23.58
2022-10-12T10:06:17.983Z,23.26
2022-10-12T10:08:44.687Z,23.16
2022-10-12T10:11:11.247Z,23.57
2022-10-12T10:13:37.171Z,23.78
2022-10-12T10:16:03.098Z,23.22
2022-10-12T10:18:29.799Z,23.53
2022-10-12T10:20:55.788Z,23.79
2022-10-12T10:23:21.747Z,22.97
2022-10-12T10:25:48.466Z,23.03
2022-10-12T10:28:14.473Z,23.79
2022-10-12T10:30:41.546Z,24.01
2022-10-12T10:33:08.332Z,24.47
2022-10-12T10:35:34.329Z,24.18
2022-10-12T10:38:00.237Z,24.44
2022-10-12T10:40:26.566Z,24.24
2022-10-12T10:42:53.058Z,23.57
2022-10-12T10:45:19.285Z,23.95
2022-10-12T10:47:46.009Z,23.01
2022-10-12T10:50:11.986Z,23.13
2022-10-12T10:52:37.910Z,24.07
2022-10-12T10:55:03.865Z,24.27
2022-10-12T10:57:29.791Z,24.05
2022-10-12T10:59:55.805Z,24.52
2022-10-12T11:02:22.658Z,24.41
2022-10-12T11:04:48.590Z,24.81
2022-10-12T11:07:14.723Z,24.13
2022-10-12T11:09:40.656Z,24.37
2022-10-12T11:12:07.509Z,24.36
2022-10-12T11:14:34.284Z,24.42
2022-10-12T11:17:00.241Z,23.60
2022-10-12T11:19:26.181Z,23.47
2022-10-12T11:21:52.705Z,24.14
2022-10-12T11:24:18.703Z,24.22
2022-10-12T11:26:44.690Z,24.01
2022-10-12T11:29:10.715Z,23.82
2022-10-12T11:31:36.622Z,24.16
2022-10-12T11:34:02.611Z,23.45
2022-10-12T11:36:28.657Z,23.94
2022-10-12T11:38:54.640Z,24.52
2022-10-12T11:41:36.484Z,24.89
2022-10-12T11:44:02.597Z,24.42
2022-10-12T11:46:28.529Z,23.61
2022-10-12T11:48:54.537Z,23.59
2022-10-12T11:51:20.832Z,24.17
2022-10-12T11:53:47.000Z,24.33
2022-10-12T11:56:14.140Z,24.37
2022-10-12T11:58:59.836Z,24.25
2022-10-12T12:01:26.470Z,24.26
2022-10-12T12:03:52.843Z,24.57
2022-10-12T12:06:19.009Z,24.69
2022-10-12T14:16:04.768Z,24.96
2022-10-12T14:18:30.712Z,25.11
2022-10-12T14:20:56.642Z,24.56
2022-10-12T14:23:22.557Z,25.03
2022-10-12T14:25:50.879Z,25.43
2022-10-12T14:28:16.862Z,25.52
2022-10-12T14:30:43.530Z,25.46
2022-10-12T14:33:09.501Z,25.08
2022-10-12T14:35:35.418Z,24.99
2022-10-12T14:38:02.092Z,24.96
2022-10-12T14:40:28.017Z,24.97
2022-10-12T14:42:54.478Z,24.76
2022-10-12T14:45:20.403Z,24.69
2022-10-12T14:47:46.322Z,24.36
2022-10-12T14:50:12.220Z,24.02
2022-10-12T14:52:38.146Z,24.05
2022-10-12T14:55:04.871Z,23.98
2022-10-12T14:57:30.792Z,24.17
2022-10-12T14:59:56.785Z,24.14
2022-10-12T15:02:22.735Z,24.27
2022-10-12T15:04:49.566Z,24.33
2022-10-12T15:07:15.502Z,24.24
2022-10-12T15:09:41.430Z,24.10
2022-10-12T15:12:08.063Z,24.04
2022-10-12T15:14:33.989Z,23.96
2022-10-12T15:16:59.893Z,23.82
2022-10-12T15:19:25.862Z,23.73
2022-10-12T15:21:51.828Z,23.73
2022-10-12T15:24:17.727Z,23.59
2022-10-12T15:26:43.671Z,23.59
2022-10-12T15:29:09.633Z,23.62
2022-10-12T15:31:36.141Z,23.62
2022-10-12T15:34:02.083Z,23.70
2022-10-12T15:36:28.003Z,23.65
2022-10-12T15:38:53.953Z,23.64
2022-10-12T15:41:20.625Z,23.58
2022-10-12T15:43:46.601Z,23.65
2022-10-12T15:46:12.507Z,23.58
2022-10-12T15:48:38.418Z,23.58
2022-10-12T15:51:05.105Z,23.54
2022-10-12T15:53:31.017Z,23.52
2022-10-12T15:55:56.957Z,23.43
2022-10-12T15:58:23.036Z,23.35
2022-10-12T16:00:49.910Z,23.32
2022-10-12T16:03:15.877Z,23.30
2022-10-12T16:05:41.845Z,23.30
2022-10-12T16:08:08.542Z,23.28
2022-10-12T16:10:34.474Z,23.25
2022-10-12T16:13:00.400Z,23.03
2022-10-12T16:15:26.326Z,23.02
2022-10-12T16:17:52.254Z,22.98
2022-10-12T16:20:18.227Z,22.99
2022-10-12T16:22:44.166Z,22.79
2022-10-12T16:25:11.033Z,22.76
2022-10-12T16:27:36.934Z,22.83
2022-10-12T16:30:05.790Z,22.85
2022-10-12T16:32:31.726Z,22.82
2022-10-12T16:34:57.685Z,22.81
2022-10-12T16:37:24.526Z,22.89
2022-10-12T16:39:50.467Z,22.85
2022-10-12T16:42:16.823Z,22.82
2022-10-12T16:44:43.753Z,22.82
2022-10-12T16:47:10.138Z,22.83
2022-10-12T16:49:36.036Z,22.75
2022-10-12T16:52:03.548Z,22.72
2022-10-12T16:54:29.760Z,22.72
2022-10-12T17:02:17.979Z,22.59
2022-10-12T17:04:45.225Z,22.64
2022-10-12T17:07:12.295Z,22.66
2022-10-12T17:17:40.821Z,22.61
2022-10-12T19:10:05.507Z,21.34
2022-10-12T19:12:31.431Z,21.32
2022-10-12T19:14:57.387Z,21.31
2022-10-12T19:17:24.035Z,21.29
2022-10-12T19:19:50.043Z,21.28
2022-10-12T19:22:16.295Z,21.39
2022-10-12T19:24:42.471Z,21.13
2022-10-12T19:27:08.365Z,21.05
2022-10-12T19:29:34.287Z,20.99
2022-10-12T19:32:00.203Z,20.97
2022-10-12T19:34:26.163Z,21.03
2022-10-12T19:36:52.074Z,21.14
2022-10-12T19:39:18.979Z,21.06
2022-10-12T19:41:44.913Z,21.06
2022-10-12T19:44:10.854Z,21.02
2022-10-12T19:46:36.807Z,21.04
2022-10-12T19:49:02.817Z,21.07
2022-10-12T19:51:28.748Z,21.04
2022-10-12T19:53:54.678Z,21.03
2022-10-12T19:56:20.598Z,20.84
2022-10-12T19:58:46.563Z,20.67
2022-10-12T20:01:12.544Z,20.77
2022-10-12T20:03:40.502Z,20.86
2022-10-12T20:06:08.935Z,20.89
2022-10-12T20:08:35.710Z,20.74
2022-10-12T20:11:01.811Z,20.79
2022-10-12T20:13:27.714Z,20.84
2022-10-12T20:15:54.240Z,20.91
2022-10-12T20:18:20.236Z,20.93
2022-10-12T20:20:46.160Z,20.93
2022-10-12T20:23:12.087Z,20.84
2022-10-12T20:25:38.332Z,20.85
2022-10-12T20:28:05.277Z,20.69
2022-10-12T20:30:31.189Z,20.68
2022-10-12T20:32:57.835Z,20.78
2022-10-12T20:35:23.744Z,20.82
2022-10-12T20:37:49.898Z,20.66
2022-10-12T20:42:59.930Z,20.73
2022-10-12T20:45:25.893Z,20.69
2022-10-12T20:47:52.606Z,20.69
2022-10-12T20:50:19.300Z,20.85
2022-10-12T20:52:45.224Z,20.65
2022-10-12T20:55:11.127Z,20.56
2022-10-12T20:57:37.116Z,20.58
2022-10-12T21:00:03.053Z,20.58
2022-10-12T21:02:29.717Z,20.58
2022-10-12T21:04:56.908Z,20.50
2022-10-12T21:07:22.846Z,20.43
2022-10-12T21:09:48.763Z,20.43
2022-10-12T21:12:15.824Z,20.35
2022-10-12T21:14:41.996Z,20.31
2022-10-12T21:17:08.668Z,20.26
2022-10-12T21:19:34.612Z,20.20
2022-10-12T21:22:00.530Z,20.22
2022-10-12T21:24:26.462Z,20.26
2022-10-12T21:26:53.075Z,20.05
2022-10-12T21:29:19.965Z,19.94
2022-10-12T21:31:45.886Z,19.85
2022-10-12T21:34:11.861Z,19.79
2022-10-12T21:36:37.776Z,19.83
2022-10-12T21:39:04.582Z,19.80
2022-10-12T21:41:30.468Z,19.72
2022-10-12T21:43:56.730Z,19.61
2022-10-12T21:46:22.748Z,19.53
2022-10-12T21:48:50.176Z,19.62
2022-10-12T21:51:16.392Z,19.60
2022-10-12T21:53:42.711Z,19.57
2022-10-12T21:56:10.301Z,19.50
2022-10-12T21:58:36.773Z,19.42
2022-10-12T22:01:03.047Z,19.38
2022-10-12T22:03:29.336Z,19.45
